sensor_id;sensor_type;location;lat;lon;timestamp;pressure;altitude;pressure_sealevel;temperature;humidity
74346;BME280;62776;50.518;6.732;2023-10-13T00:01:44;96389.00;;;16.90;100.00
74346;BME280;62776;50.518;6.732;2023-10-13T00:04:33;96399.44;;;16.92;100.00
74346;BME280;62776;50.518;6.732;2023-10-13T00:07:23;96395.00;;;16.94;100.00
74346;BME280;62776;50.518;6.732;2023-10-13T00:10:09;96397.44;;;16.98;100.00
74346;BME280;62776;50.518;6.732;2023-10-13T00:12:56;96393.13;;;16.97;100.00
74346;BME280;62776;50.518;6.732;2023-10-13T00:15:54;96390.50;;;16.97;100.00
74346;BME280;62776;50.518;6.732;2023-10-13T00:18:44;96382.41;;;17.02;100.00
74346;BME280;62776;50.518;6.732;2023-10-13T00:21:30;96380.69;;;17.01;100.00
74346;BME280;62776;50.518;6.732;2023-10-13T00:24:19;96384.06;;;17.04;100.00
74346;BME280;62776;50.518;6.732;2023-10-13T00:27:19;96373.75;;;17.00;100.00
74346;BME280;62776;50.518;6.732;2023-10-13T00:30:26;96360.25;;;17.09;100.00
74346;BME280;62776;50.518;6.732;2023-10-13T00:33:24;96368.19;;;17.07;100.00
74346;BME280;62776;50.518;6.732;2023-10-13T00:36:11;96358.38;;;17.13;100.00
74346;BME280;62776;50.518;6.732;2023-10-13T00:39:05;96358.28;;;17.14;100.00
74346;BME280;62776;50.518;6.732;2023-10-13T00:41:52;96360.09;;;17.14;100.00
74346;BME280;62776;50.518;6.732;2023-10-13T00:44:43;96363.38;;;17.19;100.00
74346;BME280;62776;50.518;6.732;2023-10-13T00:47:35;96359.97;;;17.17;100.00
74346;BME280;62776;50.518;6.732;2023-10-13T00:50:21;96361.53;;;17.21;100.00
74346;BME280;62776;50.518;6.732;2023-10-13T00:53:10;96364.19;;;17.21;100.00
74346;BME280;62776;50.518;6.732;2023-10-13T00:55:56;96354.41;;;17.24;100.00
74346;BME280;62776;50.518;6.732;2023-10-13T00:58:42;96354.34;;;17.26;100.00
74346;BME280;62776;50.518;6.732;2023-10-13T01:01:32;96343.91;;;17.24;100.00
74346;BME280;62776;50.518;6.732;2023-10-13T01:04:22;96343.78;;;17.27;100.00
74346;BME280;62776;50.518;6.732;2023-10-13T01:07:14;96340.41;;;17.24;100.00
74346;BME280;62776;50.518;6.732;2023-10-13T01:10:11;96329.13;;;17.22;100.00
74346;BME280;62776;50.518;6.732;2023-10-13T01:13:01;96324.47;;;17.28;100.00
74346;BME280;62776;50.518;6.732;2023-10-13T01:15:51;96317.44;;;17.29;100.00
74346;BME280;62776;50.518;6.732;2023-10-13T01:18:39;96320.03;;;17.30;100.00
74346;BME280;62776;50.518;6.732;2023-10-13T01:21:33;96323.44;;;17.32;100.00
74346;BME280;62776;50.518;6.732;2023-10-13T01:24:19;96322.44;;;17.35;100.00
74346;BME280;62776;50.518;6.732;2023-10-13T01:27:09;96311.94;;;17.35;100.00
74346;BME280;62776;50.518;6.732;2023-10-13T01:30:11;96308.41;;;17.36;100.00
74346;BME280;62776;50.518;6.732;2023-10-13T01:33:08;96305.81;;;17.34;100.00
74346;BME280;62776;50.518;6.732;2023-10-13T01:35:56;96308.41;;;17.36;100.00
74346;BME280;62776;50.518;6.732;2023-10-13T01:38:44;96310.22;;;17.34;100.00
74346;BME280;62776;50.518;6.732;2023-10-13T01:41:32;96311.03;;;17.36;100.00
74346;BME280;62776;50.518;6.732;2023-10-13T01:44:18;96306.72;;;17.33;100.00
74346;BME280;62776;50.518;6.732;2023-10-13T01:47:05;96305.91;;;17.33;100.00
74346;BME280;62776;50.518;6.732;2023-10-13T01:49:52;96312.84;;;17.34;100.00
74346;BME280;62776;50.518;6.732;2023-10-13T01:52:38;96307.53;;;17.35;100.00
74346;BME280;62776;50.518;6.732;2023-10-13T01:55:24;96293.47;;;17.36;100.00
74346;BME280;62776;50.518;6.732;2023-10-13T01:58:12;96289.16;;;17.35;100.00
74346;BME280;62776;50.518;6.732;2023-10-13T02:01:01;96286.41;;;17.38;100.00
74346;BME280;62776;50.518;6.732;2023-10-13T02:03:55;96297.69;;;17.40;100.00
74346;BME280;62776;50.518;6.732;2023-10-13T02:06:47;96288.91;;;17.41;100.00
74346;BME280;62776;50.518;6.732;2023-10-13T02:09:33;96286.28;;;17.41;100.00
74346;BME280;62776;50.518;6.732;2023-10-13T02:12:22;96281.72;;;17.45;100.00
74346;BME280;62776;50.518;6.732;2023-10-13T02:15:15;96280.75;;;17.47;100.00
74346;BME280;62776;50.518;6.732;2023-10-13T02:18:08;96269.41;;;17.47;100.00
74346;BME280;62776;50.518;6.732;2023-10-13T02:20:55;96273.59;;;17.51;100.00
74346;BME280;62776;50.518;6.732;2023-10-13T02:23:42;96270.81;;;17.55;100.00
74346;BME280;62776;50.518;6.732;2023-10-13T02:26:32;96265.50;;;17.57;100.00
74346;BME280;62776;50.518;6.732;2023-10-13T02:29:19;96262.09;;;17.55;100.00
74346;BME280;62776;50.518;6.732;2023-10-13T02:32:06;96265.53;;;17.55;100.00
74346;BME280;62776;50.518;6.732;2023-10-13T02:34:59;96261.22;;;17.54;100.00
74346;BME280;62776;50.518;6.732;2023-10-13T02:37:52;96250.59;;;17.57;100.00
74346;BME280;62776;50.518;6.732;2023-10-13T02:40:41;96246.16;;;17.58;100.00
74346;BME280;62776;50.518;6.732;2023-10-13T02:43:28;96246.13;;;17.59;100.00
74346;BME280;62776;50.518;6.732;2023-10-13T02:46:20;96239.00;;;17.61;100.00
74346;BME280;62776;50.518;6.732;2023-10-13T02:49:07;96234.53;;;17.63;100.00
74346;BME280;62776;50.518;6.732;2023-10-13T02:51:56;96232.88;;;17.61;100.00
74346;BME280;62776;50.518;6.732;2023-10-13T02:54:45;96226.66;;;17.63;100.00
74346;BME280;62776;50.518;6.732;2023-10-13T02:57:37;96223.31;;;17.60;100.00
74346;BME280;62776;50.518;6.732;2023-10-13T03:00:25;96226.81;;;17.60;100.00
74346;BME280;62776;50.518;6.732;2023-10-13T03:03:17;96217.34;;;17.35;100.00
74346;BME280;62776;50.518;6.732;2023-10-13T03:06:05;96212.97;;;17.55;100.00
74346;BME280;62776;50.518;6.732;2023-10-13T03:08:55;96214.78;;;17.55;100.00
74346;BME280;62776;50.518;6.732;2023-10-13T03:11:43;96212.06;;;17.56;100.00
74346;BME280;62776;50.518;6.732;2023-10-13T03:14:34;96204.84;;;17.61;100.00
74346;BME280;62776;50.518;6.732;2023-10-13T03:17:20;96199.53;;;17.63;100.00
74346;BME280;62776;50.518;6.732;2023-10-13T03:20:19;96190.78;;;17.62;100.00
74346;BME280;62776;50.518;6.732;2023-10-13T03:23:17;96195.06;;;17.65;100.00
74346;BME280;62776;50.518;6.732;2023-10-13T03:26:09;96182.94;;;17.61;100.00
74346;BME280;62776;50.518;6.732;2023-10-13T03:28:55;96181.13;;;17.63;100.00
74346;BME280;62776;50.518;6.732;2023-10-13T03:31:46;96166.34;;;17.60;100.00
74346;BME280;62776;50.518;6.732;2023-10-13T03:34:32;96161.91;;;17.61;100.00
74346;BME280;62776;50.518;6.732;2023-10-13T03:37:19;96153.34;;;17.57;100.00
74346;BME280;62776;50.518;6.732;2023-10-13T03:40:24;96151.84;;;17.50;100.00
74346;BME280;62776;50.518;6.732;2023-10-13T03:43:10;96151.84;;;17.50;100.00
74346;BME280;62776;50.518;6.732;2023-10-13T03:45:56;96147.47;;;17.51;100.00
74346;BME280;62776;50.518;6.732;2023-10-13T03:48:54;96139.69;;;17.48;100.00
74346;BME280;62776;50.518;6.732;2023-10-13T03:51:45;96133.72;;;17.44;100.00
74346;BME280;62776;50.518;6.732;2023-10-13T03:54:34;96123.28;;;17.43;100.00
74346;BME280;62776;50.518;6.732;2023-10-13T03:57:21;96122.53;;;17.41;100.00
74346;BME280;62776;50.518;6.732;2023-10-13T04:00:08;96126.06;;;17.40;100.00
74346;BME280;62776;50.518;6.732;2023-10-13T04:02:55;96125.19;;;17.39;100.00
74346;BME280;62776;50.518;6.732;2023-10-13T04:06:05;96112.13;;;17.38;100.00
74346;BME280;62776;50.518;6.732;2023-10-13T04:09:02;96105.88;;;17.40;100.00
74346;BME280;62776;50.518;6.732;2023-10-13T04:12:07;96105.13;;;17.38;100.00
74346;BME280;62776;50.518;6.732;2023-10-13T04:14:59;96100.56;;;17.42;100.00
74346;BME280;62776;50.518;6.732;2023-10-13T04:17:51;96095.16;;;17.45;100.00
74346;BME280;62776;50.518;6.732;2023-10-13T04:20:40;96096.88;;;17.46;100.00
74346;BME280;62776;50.518;6.732;2023-10-13T04:23:32;96094.00;;;17.52;100.00
74346;BME280;62776;50.518;6.732;2023-10-13T04:26:38;96096.66;;;17.50;100.00
74346;BME280;62776;50.518;6.732;2023-10-13T04:29:44;96093.94;;;17.53;100.00
74346;BME280;62776;50.518;6.732;2023-10-13T04:32:48;96092.09;;;17.55;100.00
74346;BME280;62776;50.518;6.732;2023-10-13T04:35:52;96081.38;;;17.60;100.00
74346;BME280;62776;50.518;6.732;2023-10-13T04:38:45;96088.31;;;17.61;100.00
74346;BME280;62776;50.518;6.732;2023-10-13T04:41:47;96084.78;;;17.62;100.00
74346;BME280;62776;50.518;6.732;2023-10-13T04:44:33;96081.25;;;17.63;100.00
74346;BME280;62776;50.518;6.732;2023-10-13T04:47:42;96081.94;;;17.66;100.00
74346;BME280;62776;50.518;6.732;2023-10-13T04:50:46;96092.69;;;17.62;100.00
74346;BME280;62776;50.518;6.732;2023-10-13T04:53:33;96097.66;;;17.68;100.00
74346;BME280;62776;50.518;6.732;2023-10-13T04:56:19;96084.53;;;17.68;100.00
74346;BME280;62776;50.518;6.732;2023-10-13T04:59:24;96086.22;;;17.69;100.00
74346;BME280;62776;50.518;6.732;2023-10-13T05:02:29;96086.06;;;17.72;100.00
74346;BME280;62776;50.518;6.732;2023-10-13T05:05:21;96091.31;;;17.72;100.00
74346;BME280;62776;50.518;6.732;2023-10-13T05:08:28;96079.00;;;17.74;100.00
74346;BME280;62776;50.518;6.732;2023-10-13T05:11:32;96077.06;;;17.78;100.00
74346;BME280;62776;50.518;6.732;2023-10-13T05:14:37;96070.97;;;17.77;100.00
74346;BME280;62776;50.518;6.732;2023-10-13T05:17:44;96061.38;;;17.76;100.00
74346;BME280;62776;50.518;6.732;2023-10-13T05:20:49;96062.13;;;17.78;100.00
74346;BME280;62776;50.518;6.732;2023-10-13T05:23:53;96065.41;;;17.83;100.00
74346;BME280;62776;50.518;6.732;2023-10-13T05:26:58;96075.00;;;17.84;100.00
74346;BME280;62776;50.518;6.732;2023-10-13T05:30:03;96066.34;;;17.82;100.00
74346;BME280;62776;50.518;6.732;2023-10-13T05:33:08;96061.00;;;17.84;100.00
74346;BME280;62776;50.518;6.732;2023-10-13T05:36:13;96066.19;;;17.85;100.00
74346;BME280;62776;50.518;6.732;2023-10-13T05:39:17;96061.00;;;17.84;100.00
74346;BME280;62776;50.518;6.732;2023-10-13T05:42:22;96068.13;;;17.82;100.00
74346;BME280;62776;50.518;6.732;2023-10-13T05:45:26;96073.38;;;17.82;100.00
74346;BME280;62776;50.518;6.732;2023-10-13T05:48:31;96068.88;;;17.84;100.00
74346;BME280;62776;50.518;6.732;2023-10-13T05:51:35;96064.41;;;17.86;100.00
74346;BME280;62776;50.518;6.732;2023-10-13T05:54:23;96059.22;;;17.84;100.00
74346;BME280;62776;50.518;6.732;2023-10-13T05:57:28;96062.56;;;17.88;100.00
74346;BME280;62776;50.518;6.732;2023-10-13T06:00:39;96054.75;;;17.86;100.00
74346;BME280;62776;50.518;6.732;2023-10-13T06:03:44;96058.94;;;17.90;100.00
74346;BME280;62776;50.518;6.732;2023-10-13T06:06:49;96061.50;;;17.92;100.00
74346;BME280;62776;50.518;6.732;2023-10-13T06:09:53;96064.06;;;17.93;100.00
74346;BME280;62776;50.518;6.732;2023-10-13T06:12:59;96063.06;;;17.96;100.00
74346;BME280;62776;50.518;6.732;2023-10-13T06:16:12;96060.63;;;17.91;100.00
74346;BME280;62776;50.518;6.732;2023-10-13T06:19:17;96064.84;;;17.95;100.00
74346;BME280;62776;50.518;6.732;2023-10-13T06:22:22;96053.22;;;17.99;100.00
74346;BME280;62776;50.518;6.732;2023-10-13T06:25:26;96052.41;;;17.99;100.00
74346;BME280;62776;50.518;6.732;2023-10-13T06:28:31;96047.91;;;18.01;100.00
74346;BME280;62776;50.518;6.732;2023-10-13T06:31:26;96039.16;;;18.00;100.00
74346;BME280;62776;50.518;6.732;2023-10-13T06:34:13;96039.25;;;17.99;100.00
74346;BME280;62776;50.518;6.732;2023-10-13T06:37:01;96050.56;;;18.01;100.00
74346;BME280;62776;50.518;6.732;2023-10-13T06:39:49;96046.16;;;18.01;100.00
74346;BME280;62776;50.518;6.732;2023-10-13T06:42:36;96054.09;;;18.00;100.00
74346;BME280;62776;50.518;6.732;2023-10-13T06:45:28;96040.88;;;18.01;100.00
74346;BME280;62776;50.518;6.732;2023-10-13T06:48:17;96046.19;;;18.00;100.00
74346;BME280;62776;50.518;6.732;2023-10-13T06:51:06;96047.06;;;18.00;100.00
74346;BME280;62776;50.518;6.732;2023-10-13T06:54:04;96047.78;;;18.04;100.00
74346;BME280;62776;50.518;6.732;2023-10-13T06:56:55;96036.41;;;18.03;100.00
74346;BME280;62776;50.518;6.732;2023-10-13T06:59:42;96036.25;;;18.06;100.00
74346;BME280;62776;50.518;6.732;2023-10-13T07:02:28;96033.63;;;18.06;100.00
74346;BME280;62776;50.518;6.732;2023-10-13T07:05:20;96033.63;;;18.06;100.00
74346;BME280;62776;50.518;6.732;2023-10-13T07:08:07;96034.25;;;18.11;100.00
74346;BME280;62776;50.518;6.732;2023-10-13T07:10:56;96025.59;;;18.09;100.00
74346;BME280;62776;50.518;6.732;2023-10-13T07:13:51;96029.63;;;18.16;100.00
74346;BME280;62776;50.518;6.732;2023-10-13T07:16:56;96035.47;;;18.04;100.00
74346;BME280;62776;50.518;6.732;2023-10-13T07:19:45;96035.72;;;18.17;100.00
74346;BME280;62776;50.518;6.732;2023-10-13T07:22:39;96036.44;;;18.20;100.00
74346;BME280;62776;50.518;6.732;2023-10-13T07:25:26;96036.34;;;18.22;100.00
74346;BME280;62776;50.518;6.732;2023-10-13T07:28:12;96031.88;;;18.24;100.00
74346;BME280;62776;50.518;6.732;2023-10-13T07:31:02;96025.63;;;18.26;100.00
74346;BME280;62776;50.518;6.732;2023-10-13T07:33:48;96032.53;;;18.29;100.00
74346;BME280;62776;50.518;6.732;2023-10-13T07:36:34;96034.22;;;18.30;100.00
74346;BME280;62776;50.518;6.732;2023-10-13T07:39:28;96026.94;;;18.35;100.00
74346;BME280;62776;50.518;6.732;2023-10-13T07:42:14;96026.72;;;18.40;100.00
74346;BME280;62776;50.518;6.732;2023-10-13T07:45:08;96032.75;;;18.42;100.00
74346;BME280;62776;50.518;6.732;2023-10-13T07:47:54;96028.13;;;18.47;100.00
74346;BME280;62776;50.518;6.732;2023-10-13T07:50:40;96030.72;;;18.48;100.00
74346;BME280;62776;50.518;6.732;2023-10-13T07:53:27;96021.81;;;18.51;100.00
74346;BME280;62776;50.518;6.732;2023-10-13T07:56:20;96021.03;;;18.49;100.00
74346;BME280;62776;50.518;6.732;2023-10-13T07:59:07;96013.13;;;18.49;100.00
74346;BME280;62776;50.518;6.732;2023-10-13T08:01:54;96019.94;;;18.53;100.00
74346;BME280;62776;50.518;6.732;2023-10-13T08:04:58;96023.28;;;18.56;100.00
74346;BME280;62776;50.518;6.732;2023-10-13T08:07:44;96021.19;;;18.63;100.00
74346;BME280;62776;50.518;6.732;2023-10-13T08:10:44;96019.56;;;18.60;100.00
74346;BME280;62776;50.518;6.732;2023-10-13T08:13:31;96012.06;;;18.70;100.00
74346;BME280;62776;50.518;6.732;2023-10-13T08:16:22;95997.91;;;18.72;100.00
74346;BME280;62776;50.518;6.732;2023-10-13T08:19:08;96014.22;;;18.79;100.00
74346;BME280;62776;50.518;6.732;2023-10-13T08:21:59;96017.94;;;18.75;100.00
74346;BME280;62776;50.518;6.732;2023-10-13T08:24:46;96031.03;;;18.76;100.00
74346;BME280;62776;50.518;6.732;2023-10-13T08:27:33;96030.34;;;18.73;100.00
74346;BME280;62776;50.518;6.732;2023-10-13T08:30:20;96016.94;;;18.77;100.00
74346;BME280;62776;50.518;6.732;2023-10-13T08:33:13;96019.31;;;18.82;100.00
74346;BME280;62776;50.518;6.732;2023-10-13T08:36:02;96028.78;;;18.86;100.00
74346;BME280;62776;50.518;6.732;2023-10-13T08:39:11;96027.78;;;18.89;100.00
74346;BME280;62776;50.518;6.732;2023-10-13T08:42:21;96043.41;;;18.92;100.00
74346;BME280;62776;50.518;6.732;2023-10-13T08:45:16;96036.75;;;19.02;100.00
74346;BME280;62776;50.518;6.732;2023-10-13T08:48:13;96051.06;;;19.13;100.00
74346;BME280;62776;50.518;6.732;2023-10-13T08:51:03;96038.88;;;19.28;100.00
74346;BME280;62776;50.518;6.732;2023-10-13T08:53:56;96034.91;;;19.36;100.00
74346;BME280;62776;50.518;6.732;2023-10-13T08:56:47;96024.16;;;19.24;100.00
74346;BME280;62776;50.518;6.732;2023-10-13T08:59:43;96016.22;;;19.08;100.00
74346;BME280;62776;50.518;6.732;2023-10-13T09:02:40;96013.44;;;18.94;100.00
74346;BME280;62776;50.518;6.732;2023-10-13T09:05:45;96025.50;;;18.98;100.00
74346;BME280;62776;50.518;6.732;2023-10-13T09:08:46;96027.81;;;19.04;100.00
74346;BME280;62776;50.518;6.732;2023-10-13T09:11:55;96019.59;;;19.10;100.00
74346;BME280;62776;50.518;6.732;2023-10-13T09:14:56;96017.84;;;19.11;100.00
74346;BME280;62776;50.518;6.732;2023-10-13T09:17:58;96032.22;;;19.21;100.00
74346;BME280;62776;50.518;6.732;2023-10-13T09:21:02;96024.56;;;19.16;100.00
74346;BME280;62776;50.518;6.732;2023-10-13T09:24:14;96004.34;;;19.17;100.00
74346;BME280;62776;50.518;6.732;2023-10-13T09:27:17;95988.47;;;19.01;100.00
74346;BME280;62776;50.518;6.732;2023-10-13T09:30:05;95980.06;;;18.77;100.00
74346;BME280;62776;50.518;6.732;2023-10-13T09:33:05;95987.38;;;18.72;100.00
74346;BME280;62776;50.518;6.732;2023-10-13T09:35:54;95976.88;;;18.71;100.00
74346;BME280;62776;50.518;6.732;2023-10-13T09:38:40;95976.13;;;18.69;100.00
74346;BME280;62776;50.518;6.732;2023-10-13T09:41:27;95966.66;;;18.82;100.00
74346;BME280;62776;50.518;6.732;2023-10-13T09:44:19;95967.91;;;18.92;100.00
74346;BME280;62776;50.518;6.732;2023-10-13T09:47:10;95972.34;;;19.07;100.00
74346;BME280;62776;50.518;6.732;2023-10-13T09:50:05;95955.97;;;19.18;100.00
74346;BME280;62776;50.518;6.732;2023-10-13T09:53:00;95961.66;;;19.26;100.00
74346;BME280;62776;50.518;6.732;2023-10-13T09:56:18;95959.28;;;19.21;100.00
74346;BME280;62776;50.518;6.732;2023-10-13T09:59:11;95955.59;;;19.25;100.00
74346;BME280;62776;50.518;6.732;2023-10-13T10:02:03;95952.59;;;19.31;100.00
74346;BME280;62776;50.518;6.732;2023-10-13T10:04:55;95939.06;;;19.39;100.00
74346;BME280;62776;50.518;6.732;2023-10-13T10:07:58;95951.47;;;19.53;100.00
74346;BME280;62776;50.518;6.732;2023-10-13T10:17:11;95956.06;;;19.96;100.00
74346;BME280;62776;50.518;6.732;2023-10-13T10:19:57;95953.72;;;20.06;100.00
74346;BME280;62776;50.518;6.732;2023-10-13T10:22:43;95959.81;;;20.22;100.00
74346;BME280;62776;50.518;6.732;2023-10-13T10:25:35;95959.84;;;20.37;100.00
74346;BME280;62776;50.518;6.732;2023-10-13T10:28:21;95955.84;;;20.60;100.00
74346;BME280;62776;50.518;6.732;2023-10-13T10:31:08;95960.78;;;20.80;100.00
74346;BME280;62776;50.518;6.732;2023-10-13T10:33:58;95962.72;;;21.06;100.00
74346;BME280;62776;50.518;6.732;2023-10-13T10:36:48;95951.50;;;21.17;100.00
74346;BME280;62776;50.518;6.732;2023-10-13T10:39:39;95946.59;;;21.25;100.00
74346;BME280;62776;50.518;6.732;2023-10-13T10:42:31;95936.97;;;21.24;100.00
74346;BME280;62776;50.518;6.732;2023-10-13T10:45:19;95933.09;;;21.30;100.00
74346;BME280;62776;50.518;6.732;2023-10-13T10:48:12;95945.25;;;21.32;100.00
74346;BME280;62776;50.518;6.732;2023-10-13T10:51:04;95963.94;;;21.43;100.00
74346;BME280;62776;50.518;6.732;2023-10-13T10:54:00;95957.06;;;21.55;100.00
74346;BME280;62776;50.518;6.732;2023-10-13T10:56:59;95944.47;;;21.72;100.00
74346;BME280;62776;50.518;6.732;2023-10-13T10:59:58;95933.66;;;21.90;100.00
74346;BME280;62776;50.518;6.732;2023-10-13T11:02:57;95930.63;;;21.96;100.00
74346;BME280;62776;50.518;6.732;2023-10-13T11:05:47;95934.25;;;21.95;100.00
74346;BME280;62776;50.518;6.732;2023-10-13T11:08:34;95928.34;;;22.04;100.00
74346;BME280;62776;50.518;6.732;2023-10-13T11:11:31;95915.84;;;22.06;100.00
74346;BME280;62776;50.518;6.732;2023-10-13T11:14:28;95918.59;;;22.04;100.00
74346;BME280;62776;50.518;6.732;2023-10-13T11:17:24;95913.50;;;22.01;100.00
74346;BME280;62776;50.518;6.732;2023-10-13T11:20:21;95911.41;;;22.06;99.24
74346;BME280;62776;50.518;6.732;2023-10-13T11:23:20;95914.66;;;21.97;97.25
74346;BME280;62776;50.518;6.732;2023-10-13T11:26:11;95907.41;;;21.87;97.07
74346;BME280;62776;50.518;6.732;2023-10-13T11:28:57;95910.13;;;21.85;99.82
74346;BME280;62776;50.518;6.732;2023-10-13T11:31:45;95908.91;;;21.76;96.16
74346;BME280;62776;50.518;6.732;2023-10-13T11:34:31;95909.03;;;21.75;97.49
74346;BME280;62776;50.518;6.732;2023-10-13T11:37:25;95910.81;;;21.74;99.35
74346;BME280;62776;50.518;6.732;2023-10-13T11:40:15;95900.13;;;21.76;96.53
74346;BME280;62776;50.518;6.732;2023-10-13T11:43:22;95907.59;;;21.84;100.00
74346;BME280;62776;50.518;6.732;2023-10-13T11:46:13;95895.47;;;21.94;98.36
74346;BME280;62776;50.518;6.732;2023-10-13T11:49:11;95893.25;;;22.00;97.29
74346;BME280;62776;50.518;6.732;2023-10-13T11:52:07;95897.69;;;22.26;96.11
74346;BME280;62776;50.518;6.732;2023-10-13T11:55:02;95889.59;;;22.55;92.73
74346;BME280;62776;50.518;6.732;2023-10-13T11:57:48;95879.78;;;22.82;92.45
74346;BME280;62776;50.518;6.732;2023-10-13T12:00:34;95880.63;;;22.95;88.54
74346;BME280;62776;50.518;6.732;2023-10-13T12:03:40;95874.16;;;22.99;90.00
74346;BME280;62776;50.518;6.732;2023-10-13T12:06:44;95876.06;;;23.10;88.64
74346;BME280;62776;50.518;6.732;2023-10-13T12:09:31;95869.78;;;23.23;85.72
74346;BME280;62776;50.518;6.732;2023-10-13T12:12:36;95862.34;;;23.41;86.90
74346;BME280;62776;50.518;6.732;2023-10-13T12:15:34;95868.16;;;23.46;85.08
74346;BME280;62776;50.518;6.732;2023-10-13T12:18:32;95863.59;;;23.48;89.13
74346;BME280;62776;50.518;6.732;2023-10-13T12:21:19;95883.13;;;23.34;87.63
74346;BME280;62776;50.518;6.732;2023-10-13T12:24:07;95858.53;;;23.20;88.96
74346;BME280;62776;50.518;6.732;2023-10-13T12:26:58;95859.59;;;23.05;88.89
74346;BME280;62776;50.518;6.732;2023-10-13T12:29:53;95859.19;;;22.85;91.65
74346;BME280;62776;50.518;6.732;2023-10-13T12:32:42;95868.97;;;22.98;93.75
74346;BME280;62776;50.518;6.732;2023-10-13T12:35:44;95858.66;;;23.06;91.96
74346;BME280;62776;50.518;6.732;2023-10-13T12:38:48;95848.28;;;23.03;89.92
74346;BME280;62776;50.518;6.732;2023-10-13T12:41:35;95855.06;;;23.07;90.44
74346;BME280;62776;50.518;6.732;2023-10-13T12:44:39;95848.38;;;23.14;91.13
74346;BME280;62776;50.518;6.732;2023-10-13T12:47:44;95853.47;;;23.04;90.20
74346;BME280;62776;50.518;6.732;2023-10-13T12:50:49;95859.41;;;22.95;88.38
74346;BME280;62776;50.518;6.732;2023-10-13T12:53:54;95860.25;;;22.83;89.06
74346;BME280;62776;50.518;6.732;2023-10-13T12:56:41;95850.31;;;22.74;85.79
74346;BME280;62776;50.518;6.732;2023-10-13T12:59:27;95854.03;;;22.71;88.04
74346;BME280;62776;50.518;6.732;2023-10-13T13:02:13;95852.06;;;22.61;82.90
74346;BME280;62776;50.518;6.732;2023-10-13T13:05:02;95846.66;;;22.50;85.83
74346;BME280;62776;50.518;6.732;2023-10-13T13:07:53;95837.91;;;22.49;88.74
74346;BME280;62776;50.518;6.732;2023-10-13T13:10:39;95847.09;;;22.44;90.76
74346;BME280;62776;50.518;6.732;2023-10-13T13:13:28;95838.91;;;22.34;91.89
74346;BME280;62776;50.518;6.732;2023-10-13T13:16:15;95830.44;;;22.29;94.58
74346;BME280;62776;50.518;6.732;2023-10-13T13:19:04;95829.72;;;22.27;94.98
74346;BME280;62776;50.518;6.732;2023-10-13T13:21:56;95821.25;;;22.22;95.29
74346;BME280;62776;50.518;6.732;2023-10-13T13:24:43;95805.56;;;22.19;95.15
74346;BME280;62776;50.518;6.732;2023-10-13T13:27:29;95832.03;;;22.19;96.03
74346;BME280;62776;50.518;6.732;2023-10-13T13:30:16;95817.50;;;22.12;95.78
74346;BME280;62776;50.518;6.732;2023-10-13T13:33:06;95822.06;;;22.10;95.89
74346;BME280;62776;50.518;6.732;2023-10-13T13:36:11;95806.44;;;21.93;96.21
74346;BME280;62776;50.518;6.732;2023-10-13T13:39:04;95800.22;;;21.94;97.63
74346;BME280;62776;50.518;6.732;2023-10-13T13:41:51;95806.06;;;21.85;97.47
74346;BME280;62776;50.518;6.732;2023-10-13T13:44:45;95802.69;;;21.83;99.80
74346;BME280;62776;50.518;6.732;2023-10-13T13:47:34;95808.19;;;21.80;99.74
74346;BME280;62776;50.518;6.732;2023-10-13T13:53:10;95805.41;;;21.68;100.00
74346;BME280;62776;50.518;6.732;2023-10-13T13:56:01;95789.31;;;21.71;100.00
74346;BME280;62776;50.518;6.732;2023-10-13T13:58:49;95794.50;;;21.73;100.00
74346;BME280;62776;50.518;6.732;2023-10-13T14:01:39;95771.88;;;21.69;99.19
74346;BME280;62776;50.518;6.732;2023-10-13T14:04:26;95775.56;;;21.66;100.00
74346;BME280;62776;50.518;6.732;2023-10-13T14:07:19;95786.75;;;21.57;100.00
74346;BME280;62776;50.518;6.732;2023-10-13T14:10:06;95774.44;;;21.56;100.00
74346;BME280;62776;50.518;6.732;2023-10-13T14:12:53;95771.81;;;21.56;100.00
74346;BME280;62776;50.518;6.732;2023-10-13T14:15:39;95778.47;;;21.49;100.00
74346;BME280;62776;50.518;6.732;2023-10-13T14:18:29;95769.13;;;21.44;100.00
74346;BME280;62776;50.518;6.732;2023-10-13T14:21:23;95775.59;;;21.40;100.00
74346;BME280;62776;50.518;6.732;2023-10-13T14:24:10;95778.84;;;21.43;100.00
74346;BME280;62776;50.518;6.732;2023-10-13T14:27:02;95774.72;;;21.39;99.98
74346;BME280;62776;50.518;6.732;2023-10-13T14:29:55;95781.16;;;21.35;100.00
74346;BME280;62776;50.518;6.732;2023-10-13T14:32:42;95782.75;;;21.38;100.00
74346;BME280;62776;50.518;6.732;2023-10-13T14:35:35;95766.03;;;21.37;99.44
74346;BME280;62776;50.518;6.732;2023-10-13T14:38:21;95776.72;;;21.36;100.00
74346;BME280;62776;50.518;6.732;2023-10-13T14:41:09;95771.44;;;21.36;100.00
74346;BME280;62776;50.518;6.732;2023-10-13T14:44:01;95757.22;;;21.24;100.00
74346;BME280;62776;50.518;6.732;2023-10-13T14:46:51;95766.25;;;21.34;100.00
74346;BME280;62776;50.518;6.732;2023-10-13T14:49:40;95762.09;;;21.30;99.39
74346;BME280;62776;50.518;6.732;2023-10-13T14:52:27;95749.59;;;21.20;99.31
74346;BME280;62776;50.518;6.732;2023-10-13T14:55:18;95746.41;;;21.14;100.00
74346;BME280;62776;50.518;6.732;2023-10-13T14:58:23;95748.66;;;21.06;99.42
74346;BME280;62776;50.518;6.732;2023-10-13T15:01:17;95740.16;;;21.01;98.74
74346;BME280;62776;50.518;6.732;2023-10-13T15:04:03;95748.50;;;20.95;99.31
74346;BME280;62776;50.518;6.732;2023-10-13T15:06:50;95735.47;;;20.92;100.00
74346;BME280;62776;50.518;6.732;2023-10-13T15:09:37;95727.81;;;20.88;100.00
74346;BME280;62776;50.518;6.732;2023-10-13T15:12:28;95721.72;;;20.87;100.00
74346;BME280;62776;50.518;6.732;2023-10-13T15:15:15;95724.63;;;20.83;100.00
74346;BME280;62776;50.518;6.732;2023-10-13T15:18:05;95730.88;;;20.82;100.00